Time;durP1;ratioP1;P1;durP2;ratioP2;P2;SDS_P1;SDS_P2;PMS_P1;PMS_P2;Temp;Humidity;BMP_temperature;BMP_pressure;BME280_temperature;BME280_humidity;BME280_pressure;Samples;Min_cycle;Max_cycle;Signal;HPM_P1;HPM_P2
2023/01/18 00:01:20;;;;;;;25.50;22.70;;;;;;;2.62;81.72;95213.91;108861;1297;22274;-85
2023/01/18 00:03:48;;;;;;;23.10;20.60;;;;;;;2.58;81.70;95213.05;108867;1297;22294;-85
2023/01/18 00:06:16;;;;;;;22.30;20.00;;;;;;;2.57;81.69;95207.35;108867;1297;22240;-85
2023/01/18 00:08:44;;;;;;;21.80;19.50;;;;;;;2.56;81.64;95203.05;108859;1297;22193;-85
2023/01/18 00:11:15;;;;;;;21.40;19.20;;;;;;;2.57;81.75;95198.63;108868;1297;22195;-85
2023/01/18 00:13:44;;;;;;;21.80;19.70;;;;;;;2.54;81.96;95193.73;108870;1297;22216;-82
2023/01/18 00:16:15;;;;;;;19.50;17.50;;;;;;;2.50;82.24;95185.86;108859;1297;22138;-86
2023/01/18 00:18:49;;;;;;;20.90;18.90;;;;;;;2.43;82.25;95175.95;108850;1297;22153;-85
2023/01/18 00:21:17;;;;;;;20.20;18.10;;;;;;;2.42;81.90;95174.20;108811;1297;23030;-81
2023/01/18 00:23:45;;;;;;;19.40;17.40;;;;;;;2.40;82.55;95172.70;108857;1297;22246;-84
2023/01/18 00:26:13;;;;;;;20.70;18.50;;;;;;;2.42;82.28;95174.09;108843;1297;22168;-84
2023/01/18 00:28:41;;;;;;;20.50;18.50;;;;;;;2.41;82.50;95173.80;108853;1297;22217;-84
2023/01/18 00:31:28;;;;;;;20.80;18.70;;;;;;;2.41;82.92;95175.02;108664;1297;23109;-83
2023/01/18 00:33:56;;;;;;;22.30;20.00;;;;;;;2.38;82.87;95176.08;108855;1297;22950;-85
2023/01/18 00:36:23;;;;;;;22.30;20.00;;;;;;;2.36;82.94;95175.83;108854;1297;22256;-84
2023/01/18 00:38:52;;;;;;;22.90;20.70;;;;;;;2.36;83.10;95170.14;108858;1297;22177;-85
2023/01/18 00:41:21;;;;;;;22.70;20.50;;;;;;;2.34;83.06;95173.26;108849;1297;22862;-84
2023/01/18 00:43:50;;;;;;;23.60;21.30;;;;;;;2.36;82.91;95176.89;108860;1297;22268;-84
2023/01/18 00:46:24;;;;;;;24.60;22.20;;;;;;;2.34;82.98;95180.63;108859;1297;22203;-84
2023/01/18 00:48:53;;;;;;;25.10;22.80;;;;;;;2.28;83.08;95182.92;108855;1297;22231;-84
2023/01/18 00:51:23;;;;;;;25.50;23.10;;;;;;;2.21;83.01;95182.72;108879;1297;22269;-84
2023/01/18 00:53:51;;;;;;;24.60;22.30;;;;;;;2.16;83.22;95177.75;108905;1297;22219;-85
2023/01/18 00:56:21;;;;;;;23.60;21.10;;;;;;;2.10;83.26;95184.23;109240;1297;22264;-84
2023/01/18 00:58:49;;;;;;;23.90;21.60;;;;;;;2.08;83.18;95182.87;109283;1297;22243;-83
2023/01/18 01:01:17;;;;;;;25.90;23.40;;;;;;;2.06;83.43;95183.72;109297;1297;22189;-85
2023/01/18 01:06:43;;;;;;;30.30;27.60;;;;;;;1.97;83.37;95166.70;109292;1297;22250;-87
2023/01/18 01:09:24;;;;;;;27.90;25.40;;;;;;;1.91;83.92;95163.72;109190;1297;22227;-85
2023/01/18 01:26:12;;;;;;;23.00;20.90;;;;;;;1.76;83.98;95155.32;109357;1297;22317;-84
2023/01/18 01:28:48;;;;;;;21.80;19.80;;;;;;;1.72;83.98;95155.05;109356;1297;22274;-82
2023/01/18 01:31:17;;;;;;;20.50;18.60;;;;;;;1.74;84.19;95155.16;109349;1297;22221;-83
2023/01/18 01:33:48;;;;;;;19.60;17.70;;;;;;;1.77;84.50;95156.98;109131;1297;22247;-82
2023/01/18 01:36:19;;;;;;;19.80;18.00;;;;;;;1.76;84.52;95154.51;109339;1295;22131;-81
2023/01/18 01:38:47;;;;;;;20.60;18.70;;;;;;;1.69;84.30;95150.37;109357;1297;22290;-83
2023/01/18 01:41:26;;;;;;;21.90;19.90;;;;;;;1.61;84.42;95149.58;109366;1297;22229;-82
2023/01/18 01:43:56;;;;;;;20.30;18.50;;;;;;;1.56;84.48;95141.68;109365;1297;22185;-82
2023/01/18 01:46:42;;;;;;;19.10;17.40;;;;;;;1.52;84.31;95137.09;109034;1297;22140;-86
2023/01/18 01:49:19;;;;;;;16.90;15.40;;;;;;;1.50;84.51;95133.05;109207;1297;22179;-85
2023/01/18 01:51:52;;;;;;;17.60;15.90;;;;;;;1.51;84.46;95142.42;109363;1297;21953;-85
2023/01/18 01:54:43;;;;;;;15.50;14.10;;;;;;;1.54;84.45;95135.28;109348;1297;22168;-81
2023/01/18 01:57:17;;;;;;;16.00;14.50;;;;;;;1.54;84.65;95123.66;109254;1297;22391;-84
2023/01/18 01:59:52;;;;;;;15.20;13.90;;;;;;;1.51;84.99;95117.48;109346;1297;22208;-86
2023/01/18 02:02:20;;;;;;;14.30;12.90;;;;;;;1.46;85.00;95112.59;109358;1297;22263;-82
2023/01/18 02:04:53;;;;;;;12.70;11.50;;;;;;;1.41;85.03;95112.02;109351;1294;21935;-82
2023/01/18 02:07:22;;;;;;;11.60;10.50;;;;;;;1.40;85.21;95107.24;109366;1297;22072;-84
2023/01/18 02:09:51;;;;;;;10.70;9.70;;;;;;;1.37;85.27;95111.20;109324;1297;22283;-84
2023/01/18 02:12:19;;;;;;;10.20;9.30;;;;;;;1.33;85.42;95108.59;109057;1297;22394;-83
2023/01/18 02:14:47;;;;;;;9.50;8.60;;;;;;;1.27;85.48;95103.95;108944;1297;22286;-84
2023/01/18 02:17:40;;;;;;;9.80;8.60;;;;;;;1.25;85.80;95101.02;109076;1297;23108;-83
2023/01/18 02:20:19;;;;;;;8.50;7.70;;;;;;;1.22;85.62;95104.97;109336;1297;22275;-84
2023/01/18 02:22:58;;;;;;;7.90;7.10;;;;;;;1.24;86.01;95100.71;109336;1297;22017;-82
2023/01/18 02:25:39;;;;;;;8.90;8.00;;;;;;;1.24;85.88;95094.63;109356;1297;22628;-84
2023/01/18 02:28:18;;;;;;;9.60;8.70;;;;;;;1.26;86.02;95088.77;109357;1297;22245;-84
2023/01/18 02:34:53;;;;;;;11.00;10.00;;;;;;;1.22;86.14;95076.64;109344;1297;22361;-81
2023/01/18 02:37:35;;;;;;;7.90;7.10;;;;;;;1.23;86.11;95071.14;109170;1297;22263;-84
2023/01/18 02:40:12;;;;;;;8.00;7.10;;;;;;;1.26;86.86;95060.23;108905;1297;22245;-86
2023/01/18 02:48:23;;;;;;;6.70;6.00;;;;;;;1.26;86.68;95067.51;108862;1297;22187;-86
2023/01/18 02:50:51;;;;;;;8.30;7.10;;;;;;;1.26;86.61;95073.92;108870;1297;22248;-85
2023/01/18 02:53:19;;;;;;;6.60;5.90;;;;;;;1.28;87.00;95079.33;108868;1297;22232;-85
2023/01/18 02:56:12;;;;;;;6.40;5.70;;;;;;;1.31;86.89;95081.59;108863;1297;22227;-85
2023/01/18 02:58:46;;;;;;;6.50;5.80;;;;;;;1.33;87.20;95086.50;108849;1297;22293;-84
2023/01/18 03:02:03;;;;;;;5.80;5.20;;;;;;;1.34;86.91;95089.77;108681;1297;22268;-84
2023/01/18 03:04:38;;;;;;;6.20;5.60;;;;;;;1.33;86.99;95098.14;108968;1297;23058;-86
2023/01/18 03:07:14;;;;;;;8.20;5.60;;;;;;;1.34;87.18;95105.00;109085;1297;22009;-86
2023/01/18 03:09:44;;;;;;;6.10;5.40;;;;;;;1.34;87.15;95107.51;108894;1297;22876;-88
2023/01/18 03:12:27;;;;;;;7.00;5.60;;;;;;;1.39;87.09;95106.67;108895;1282;22916;-86
2023/01/18 03:15:32;;;;;;;7.90;7.10;;;;;;;1.45;87.25;95107.42;108876;1297;22982;-86
2023/01/18 03:18:18;;;;;;;9.20;8.30;;;;;;;1.48;87.18;95107.80;108907;1297;22286;-87
2023/01/18 03:20:52;;;;;;;8.40;7.60;;;;;;;1.47;87.18;95111.97;108886;1297;22445;-86
2023/01/18 03:23:37;;;;;;;6.90;6.20;;;;;;;1.44;87.19;95114.93;108887;1297;22325;-85
2023/01/18 03:26:10;;;;;;;6.10;5.50;;;;;;;1.43;87.57;95114.68;108896;1297;22299;-86
2023/01/18 03:34:41;;;;;;;8.50;7.50;;;;;;;1.58;87.55;95106.14;108890;1297;22975;-86
2023/01/18 03:37:14;;;;;;;6.20;5.60;;;;;;;1.62;87.40;95099.11;109153;1297;22220;-85
2023/01/18 03:39:53;;;;;;;6.70;6.00;;;;;;;1.63;87.68;95090.17;109160;1297;22221;-85
2023/01/18 03:42:26;;;;;;;5.60;5.10;;;;;;;1.59;88.00;95081.80;109024;1297;22130;-87
2023/01/18 03:45:14;;;;;;;6.80;6.10;;;;;;;1.52;88.04;95073.40;108867;1297;23479;-87
2023/01/18 03:47:42;;;;;;;6.10;4.80;;;;;;;1.48;88.24;95072.62;108944;1297;22322;-87
2023/01/18 03:50:10;;;;;;;9.70;8.70;;;;;;;1.50;88.06;95058.66;108899;1297;22220;-87
2023/01/18 03:52:41;;;;;;;18.60;17.00;;;;;;;1.53;87.99;95038.13;108903;1297;22191;-87
2023/01/18 03:55:52;;;;;;;14.20;12.80;;;;;;;1.55;87.86;95025.08;108932;1297;22219;-87
2023/01/18 03:58:29;;;;;;;8.40;7.60;;;;;;;1.51;87.93;95030.37;108363;1302;22260;-86
2023/01/18 04:00:57;;;;;;;10.30;9.40;;;;;;;1.53;88.08;95019.52;108318;1302;22441;-87
2023/01/18 04:03:25;;;;;;;7.30;6.60;;;;;;;1.51;88.08;95005.03;108333;1302;22468;-86
2023/01/18 04:05:53;;;;;;;7.00;6.30;;;;;;;1.47;87.70;95012.52;108363;1302;22400;-90
2023/01/18 04:08:21;;;;;;;6.10;5.50;;;;;;;1.45;87.88;95022.44;108334;1302;22213;-88
2023/01/18 04:10:49;;;;;;;9.00;8.10;;;;;;;1.47;87.85;95012.94;108339;1302;23049;-89
2023/01/18 04:13:17;;;;;;;14.70;13.40;;;;;;;1.46;88.05;94991.64;108289;1302;22996;-90
2023/01/18 04:15:45;;;;;;;6.80;6.20;;;;;;;1.43;88.16;94995.13;108343;1302;23074;-89
2023/01/18 04:18:14;;;;;;;7.00;6.20;;;;;;;1.38;88.26;95007.58;108264;1302;22243;-89
2023/01/18 04:20:41;;;;;;;5.60;4.90;;;;;;;1.39;88.31;95004.19;108350;1302;22365;-90
2023/01/18 04:23:09;;;;;;;5.20;4.70;;;;;;;1.41;88.19;95015.47;108346;1302;22290;-87
2023/01/18 04:26:06;;;;;;;5.30;4.70;;;;;;;1.43;88.39;95029.62;108340;1302;22162;-89
2023/01/18 04:28:57;;;;;;;5.50;4.90;;;;;;;1.47;88.31;95033.11;108493;1297;22150;-88
2023/01/18 04:31:57;;;;;;;5.70;5.10;;;;;;;1.48;88.52;95028.20;108841;1297;22340;-88
2023/01/18 04:34:25;;;;;;;6.60;6.00;;;;;;;1.47;88.52;95021.54;108678;1297;22274;-88
2023/01/18 04:36:53;;;;;;;6.50;5.90;;;;;;;1.45;88.80;95013.11;108877;1295;22863;-87
2023/01/18 04:39:22;;;;;;;6.80;4.50;;;;;;;1.46;88.56;95007.67;108994;1297;22154;-88
2023/01/18 04:41:50;;;;;;;5.00;4.10;;;;;;;1.47;89.19;95003.41;108727;1297;22220;-86
2023/01/18 04:44:18;;;;;;;5.10;4.60;;;;;;;1.49;88.90;95005.62;109015;1297;22327;-86
2023/01/18 04:46:47;;;;;;;7.90;6.90;;;;;;;1.51;89.02;95000.13;108939;1297;22222;-88
2023/01/18 04:49:16;;;;;;;8.50;7.70;;;;;;;1.51;88.94;95002.06;109046;1297;22347;-87
2023/01/18 04:51:45;;;;;;;7.80;7.10;;;;;;;1.49;89.00;95011.55;109101;1297;22216;-87
2023/01/18 04:54:15;;;;;;;7.30;6.60;;;;;;;1.50;89.17;95009.72;109109;1297;22235;-88
2023/01/18 04:56:43;;;;;;;9.30;8.40;;;;;;;1.53;89.23;95007.34;109120;1297;22643;-89
2023/01/18 04:59:15;;;;;;;7.10;6.40;;;;;;;1.54;89.12;95008.13;109104;1297;22296;-88
2023/01/18 05:01:43;;;;;;;8.30;7.40;;;;;;;1.57;89.08;95006.50;109118;1297;22438;-88
2023/01/18 05:04:11;;;;;;;7.20;5.90;;;;;;;1.58;88.98;95017.92;109013;1297;22196;-89
2023/01/18 05:06:39;;;;;;;5.70;5.20;;;;;;;1.59;89.68;95019.13;108836;1297;22192;-87
2023/01/18 05:09:10;;;;;;;7.70;7.00;;;;;;;1.57;89.74;95014.02;108859;1297;22215;-89
2023/01/18 05:11:38;;;;;;;7.30;6.20;;;;;;;1.58;89.38;95006.27;108864;1297;22265;-89
2023/01/18 05:14:07;;;;;;;7.50;6.80;;;;;;;1.60;89.31;95006.56;108852;1297;22233;-89
2023/01/18 05:16:35;;;;;;;7.20;6.50;;;;;;;1.63;89.47;95007.69;108806;1297;22334;-88
2023/01/18 05:19:03;;;;;;;6.80;6.10;;;;;;;1.62;89.65;95014.46;108838;1297;22176;-89
2023/01/18 05:21:31;;;;;;;7.60;6.90;;;;;;;1.58;89.65;95021.64;108838;1297;22125;-88
2023/01/18 05:23:59;;;;;;;10.10;9.30;;;;;;;1.54;89.81;95021.64;108865;1297;23059;-86
2023/01/18 05:26:27;;;;;;;10.10;9.00;;;;;;;1.54;89.90;95023.83;108840;1297;22996;-89
2023/01/18 05:28:56;;;;;;;6.80;6.10;;;;;;;1.56;89.63;95031.26;108849;1297;22266;-89
2023/01/18 05:31:24;;;;;;;7.90;7.20;;;;;;;1.58;89.69;95038.31;108868;1282;22224;-87
2023/01/18 05:33:55;;;;;;;6.30;5.70;;;;;;;1.59;89.70;95051.59;108844;1297;22238;-91
2023/01/18 05:36:23;;;;;;;6.90;6.30;;;;;;;1.58;89.60;95045.21;108862;1297;22296;-90
2023/01/18 05:38:51;;;;;;;18.60;16.80;;;;;;;1.55;90.05;95040.78;108874;1297;22253;-90
2023/01/18 05:41:20;;;;;;;27.80;25.00;;;;;;;1.53;90.00;95045.08;108821;1297;22240;-89
2023/01/18 05:43:48;;;;;;;13.10;11.80;;;;;;;1.53;89.87;95048.42;108814;1294;22394;-90
2023/01/18 05:46:16;;;;;;;9.50;8.60;;;;;;;1.54;89.96;95050.05;108867;1297;22314;-88
2023/01/18 05:48:44;;;;;;;10.90;9.90;;;;;;;1.55;90.12;95060.67;108829;1297;22289;-89
2023/01/18 05:51:12;;;;;;;9.60;8.70;;;;;;;1.55;90.24;95052.08;108843;1297;22796;-88
2023/01/18 05:53:40;;;;;;;8.90;7.90;;;;;;;1.52;90.02;95047.70;108841;1297;22290;-87
2023/01/18 05:56:09;;;;;;;9.70;8.80;;;;;;;1.52;90.34;95052.63;108835;1297;22125;-88
2023/01/18 05:58:37;;;;;;;9.30;8.50;;;;;;;1.55;90.15;95046.37;108831;1297;22856;-88
2023/01/18 06:01:09;;;;;;;50.30;45.60;;;;;;;1.62;90.30;95049.50;108831;1297;22231;-88
2023/01/18 06:03:37;;;;;;;22.70;20.40;;;;;;;1.65;89.98;95051.16;108844;1297;22192;-89
2023/01/18 06:06:05;;;;;;;14.20;12.80;;;;;;;1.66;90.35;95052.19;108832;1297;22921;-88
2023/01/18 06:08:33;;;;;;;15.40;14.10;;;;;;;1.68;90.49;95053.34;108855;1297;22194;-89
2023/01/18 06:11:02;;;;;;;13.10;11.70;;;;;;;1.68;90.41;95052.73;108778;1297;22978;-87
2023/01/18 06:13:31;;;;;;;14.00;12.80;;;;;;;1.69;90.18;95044.59;108837;1297;22278;-87
2023/01/18 06:16:00;;;;;;;22.00;19.90;;;;;;;1.73;90.26;95032.77;108861;1297;22265;-89
2023/01/18 06:18:31;;;;;;;16.00;14.50;;;;;;;1.76;90.40;95025.48;108835;1297;22888;-89
2023/01/18 06:21:01;;;;;;;12.20;11.00;;;;;;;1.78;90.51;95021.61;108844;1297;22291;-87
2023/01/18 06:23:30;;;;;;;12.50;11.30;;;;;;;1.78;90.37;95016.90;108847;1297;22380;-86
2023/01/18 06:25:58;;;;;;;11.30;10.30;;;;;;;1.74;90.37;95006.74;108830;1297;22288;-87
2023/01/18 06:28:26;;;;;;;10.70;9.80;;;;;;;1.71;90.61;95004.46;108860;1297;22129;-86
2023/01/18 06:30:57;;;;;;;9.00;8.10;;;;;;;1.66;90.59;95013.44;108857;1297;22352;-88
2023/01/18 06:33:25;;;;;;;9.00;8.20;;;;;;;1.64;90.75;95019.02;108864;1282;22293;-87
2023/01/18 06:35:53;;;;;;;9.00;8.10;;;;;;;1.66;90.75;95029.73;108667;1297;22218;-88
2023/01/18 06:38:21;;;;;;;10.30;9.40;;;;;;;1.69;90.66;95031.14;108831;1297;22231;-87
2023/01/18 06:40:49;;;;;;;9.30;8.50;;;;;;;1.70;90.99;95024.46;108874;1297;23159;-85
2023/01/18 06:43:17;;;;;;;11.00;10.00;;;;;;;1.67;91.06;95029.45;108846;1297;22263;-86
2023/01/18 06:45:51;;;;;;;11.80;10.60;;;;;;;1.66;91.30;95037.76;108851;1297;22207;-85
2023/01/18 06:48:20;;;;;;;10.90;9.90;;;;;;;1.70;91.24;95049.85;108865;1297;22200;-85
2023/01/18 06:50:51;;;;;;;9.80;8.90;;;;;;;1.76;91.13;95055.71;108853;1297;22198;-85
2023/01/18 06:53:19;;;;;;;10.30;9.30;;;;;;;1.81;90.98;95062.09;108563;1297;22439;-85
2023/01/18 06:55:58;;;;;;;11.50;10.30;;;;;;;1.84;91.27;95066.41;108863;1297;22203;-85
2023/01/18 06:58:28;;;;;;;12.10;11.00;;;;;;;1.89;91.16;95067.80;108854;1297;22262;-86
2023/01/18 07:00:59;;;;;;;17.80;16.20;;;;;;;1.90;91.15;95066.06;108850;1297;22270;-87
2023/01/18 07:03:28;;;;;;;17.80;16.10;;;;;;;1.90;91.14;95067.19;108845;1297;22135;-86
2023/01/18 07:05:58;;;;;;;13.70;12.30;;;;;;;1.91;91.17;95071.40;108768;1297;22261;-86
2023/01/18 07:08:29;;;;;;;12.10;10.90;;;;;;;1.95;90.95;95074.16;108658;1297;22224;-86
2023/01/18 07:10:58;;;;;;;17.00;15.30;;;;;;;1.97;90.90;95079.94;108770;1297;23031;-86
2023/01/18 07:13:26;;;;;;;17.00;15.60;;;;;;;1.99;91.01;95083.96;108855;1297;22207;-88
2023/01/18 07:15:57;;;;;;;24.60;22.40;;;;;;;1.97;91.12;95084.45;108846;1297;22988;-86
2023/01/18 07:18:29;;;;;;;24.90;19.90;;;;;;;1.94;91.18;95088.63;108870;1297;22286;-86
2023/01/18 07:20:58;;;;;;;25.80;20.30;;;;;;;1.93;91.13;95098.28;108791;1297;22149;-87
2023/01/18 07:23:27;;;;;;;24.00;19.20;;;;;;;1.90;90.87;95100.21;108862;1297;22182;-87
2023/01/18 07:26:03;;;;;;;18.60;16.10;;;;;;;1.89;91.34;95103.48;108853;1297;22259;-88
2023/01/18 07:28:32;;;;;;;21.80;16.60;;;;;;;1.85;91.30;95096.80;108853;1297;22195;-88
2023/01/18 07:31:01;;;;;;;24.00;21.80;;;;;;;1.84;91.54;95097.73;108849;1297;22260;-88
2023/01/18 07:33:29;;;;;;;22.20;20.10;;;;;;;1.86;91.75;95099.23;108675;1297;22246;-85
2023/01/18 07:35:57;;;;;;;18.40;16.70;;;;;;;1.85;91.40;95097.34;108689;1297;22221;-88
2023/01/18 07:38:26;;;;;;;21.50;19.60;;;;;;;1.87;91.91;95094.83;108839;1297;22266;-88
2023/01/18 07:41:01;;;;;;;19.40;17.40;;;;;;;1.90;91.86;95088.91;108862;1297;22951;-88
2023/01/18 07:43:29;;;;;;;20.60;18.40;;;;;;;1.91;91.56;95082.45;108876;1297;22207;-88
2023/01/18 07:45:59;;;;;;;20.20;18.40;;;;;;;1.88;91.45;95071.81;108873;1296;22637;-87
2023/01/18 07:48:27;;;;;;;22.80;20.70;;;;;;;1.87;91.83;95066.59;109294;1296;22187;-82
2023/01/18 07:50:57;;;;;;;23.60;21.40;;;;;;;1.86;91.86;95065.41;109330;1295;22195;-85
2023/01/18 07:53:26;;;;;;;24.80;22.60;;;;;;;1.87;91.95;95068.98;109366;1296;22220;-85
2023/01/18 07:55:59;;;;;;;22.10;20.20;;;;;;;1.95;92.02;95062.34;109020;1296;22230;-86
2023/01/18 07:58:27;;;;;;;23.60;21.40;;;;;;;1.99;91.70;95065.31;108922;1294;22146;-86
2023/01/18 08:01:04;;;;;;;22.40;20.40;;;;;;;2.01;91.82;95073.00;108879;1297;22245;-87
2023/01/18 08:03:33;;;;;;;17.40;15.80;;;;;;;2.02;92.05;95077.97;108828;1297;22227;-89
2023/01/18 08:06:03;;;;;;;16.60;15.10;;;;;;;2.00;91.95;95080.73;108721;1297;22265;-89
2023/01/18 08:08:33;;;;;;;16.90;15.30;;;;;;;1.94;92.09;95086.12;108890;1297;22232;-88
2023/01/18 08:11:03;;;;;;;18.00;16.40;;;;;;;1.94;92.30;95092.65;108787;1297;22151;-87
2023/01/18 08:13:32;;;;;;;17.60;16.00;;;;;;;2.00;92.16;95100.40;108863;1297;22240;-88
2023/01/18 08:16:03;;;;;;;17.10;15.50;;;;;;;2.00;92.05;95099.52;108617;1297;22230;-88
2023/01/18 08:18:32;;;;;;;17.70;16.00;;;;;;;2.02;92.53;95090.51;108707;1297;22223;-88
2023/01/18 08:20:59;;;;;;;17.20;15.80;;;;;;;2.05;92.50;95082.38;108851;1297;22198;-85
2023/01/18 08:23:28;;;;;;;17.20;15.70;;;;;;;2.06;92.49;95076.09;108842;1297;23117;-87
2023/01/18 08:26:00;;;;;;;15.20;13.80;;;;;;;2.06;92.08;95075.09;108819;1297;22237;-86
2023/01/18 08:28:28;;;;;;;14.80;13.50;;;;;;;2.06;92.29;95080.66;108793;1297;22233;-86
2023/01/18 08:31:13;;;;;;;16.60;15.20;;;;;;;2.05;92.87;95085.31;108702;1297;22234;-88
2023/01/18 08:33:47;;;;;;;14.80;13.50;;;;;;;2.04;92.90;95082.47;108854;1297;22231;-86
2023/01/18 08:36:22;;;;;;;12.30;11.30;;;;;;;2.03;92.80;95075.56;108723;1297;22937;-85
2023/01/18 08:38:54;;;;;;;13.60;12.40;;;;;;;1.99;92.76;95088.68;108926;1297;22298;-86
2023/01/18 08:41:27;;;;;;;12.20;11.10;;;;;;;2.02;92.92;95104.73;109024;1297;22215;-85
2023/01/18 08:43:57;;;;;;;15.30;14.00;;;;;;;2.06;93.02;95115.25;109275;1297;22131;-85
2023/01/18 08:46:25;;;;;;;13.10;11.90;;;;;;;2.12;92.79;95129.25;109283;1297;22129;-85
2023/01/18 08:48:56;;;;;;;12.70;11.60;;;;;;;2.08;92.65;95132.02;109281;1297;22176;-87
2023/01/18 08:51:24;;;;;;;15.60;14.30;;;;;;;1.98;92.81;95131.46;108871;1297;22163;-87
2023/01/18 08:53:56;;;;;;;16.00;14.60;;;;;;;1.95;92.85;95141.23;108800;1297;22111;-86
2023/01/18 08:56:25;;;;;;;17.00;15.50;;;;;;;1.91;93.13;95144.63;108866;1297;22179;-87
2023/01/18 08:58:53;;;;;;;16.90;15.30;;;;;;;1.85;93.35;95143.11;108846;1297;22917;-87
2023/01/18 09:01:22;;;;;;;19.70;17.70;;;;;;;1.82;93.16;95146.80;108860;1297;22898;-86
2023/01/18 09:03:55;;;;;;;18.30;16.70;;;;;;;1.80;93.31;95145.46;108835;1297;22244;-86
2023/01/18 09:06:24;;;;;;;20.90;19.10;;;;;;;1.78;93.25;95142.77;108696;1297;22128;-88
2023/01/18 09:08:52;;;;;;;19.80;18.10;;;;;;;1.78;93.40;95139.80;108844;1297;22225;-87
2023/01/18 09:11:20;;;;;;;17.10;15.60;;;;;;;1.80;93.34;95131.10;108851;1297;22253;-87
2023/01/18 09:13:52;;;;;;;28.20;25.80;;;;;;;1.80;93.26;95123.88;108800;1297;22971;-87
2023/01/18 09:16:30;;;;;;;26.60;24.40;;;;;;;1.83;93.15;95117.64;108859;1297;22166;-86
2023/01/18 09:18:59;;;;;;;32.60;29.90;;;;;;;1.83;93.19;95115.67;108665;1297;22904;-86
2023/01/18 09:21:27;;;;;;;25.00;22.80;;;;;;;1.80;93.22;95113.85;108844;1297;22288;-85
2023/01/18 09:23:58;;;;;;;40.10;36.50;;;;;;;1.75;93.22;95111.80;108881;1297;22272;-86
2023/01/18 09:26:27;;;;;;;33.00;30.00;;;;;;;1.74;93.35;95116.40;108819;1297;23111;-86
2023/01/18 09:28:55;;;;;;;22.60;20.50;;;;;;;1.75;93.41;95130.24;108868;1297;22217;-86
2023/01/18 09:31:25;;;;;;;28.70;26.10;;;;;;;1.73;93.64;95143.29;108690;1297;22248;-86
2023/01/18 09:33:55;;;;;;;45.90;41.50;;;;;;;1.69;93.71;95146.50;108837;1297;22170;-86
2023/01/18 09:36:40;;;;;;;43.40;39.30;;;;;;;1.65;93.84;95147.08;108842;1297;22280;-86
2023/01/18 09:39:08;;;;;;;37.40;33.90;;;;;;;1.62;94.02;95148.61;108848;1297;22162;-86
2023/01/18 09:41:38;;;;;;;31.10;28.20;;;;;;;1.62;94.41;95152.54;108861;1297;22252;-85
2023/01/18 09:44:21;;;;;;;20.60;18.70;;;;;;;1.59;94.63;95159.34;108858;1297;22930;-87
2023/01/18 09:46:53;;;;;;;23.30;21.10;;;;;;;1.55;95.16;95168.97;108846;1297;22227;-84
2023/01/18 09:49:31;;;;;;;19.20;17.50;;;;;;;1.50;95.06;95170.16;108854;1297;22234;-87
2023/01/18 09:51:59;;;;;;;23.10;21.00;;;;;;;1.47;95.53;95175.59;108848;1297;22273;-86
2023/01/18 09:54:42;;;;;;;22.20;20.20;;;;;;;1.47;95.80;95178.99;108869;1297;22257;-85
2023/01/18 09:57:41;;;;;;;20.00;18.20;;;;;;;1.47;96.26;95181.02;108813;1297;22265;-85
2023/01/18 10:00:19;;;;;;;20.90;19.10;;;;;;;1.42;96.01;95182.54;108853;1297;22125;-85
2023/01/18 10:02:52;;;;;;;23.60;21.60;;;;;;;1.38;96.29;95189.71;108802;1297;22287;-85
2023/01/18 10:05:24;;;;;;;20.90;19.00;;;;;;;1.38;96.56;95205.61;108797;1297;22243;-85
2023/01/18 10:08:03;;;;;;;25.30;22.80;;;;;;;1.36;96.85;95217.59;108825;1297;22224;-80
2023/01/18 10:10:39;;;;;;;28.50;25.80;;;;;;;1.36;96.96;95229.21;108816;1289;22288;-83
2023/01/18 10:13:22;;;;;;;26.50;24.10;;;;;;;1.37;96.74;95229.62;108658;1283;22359;-82
2023/01/18 10:15:51;;;;;;;25.70;23.30;;;;;;;1.36;96.87;95221.00;108797;1289;22272;-85
2023/01/18 10:18:19;;;;;;;29.50;26.80;;;;;;;1.36;96.64;95219.60;108774;1290;22943;-85
2023/01/18 10:20:56;;;;;;;36.30;32.90;;;;;;;1.40;96.84;95224.36;108989;1296;22147;-81
2023/01/18 10:23:44;;;;;;;31.40;28.60;;;;;;;1.41;97.09;95225.26;108651;1285;23149;-90
2023/01/18 10:26:19;;;;;;;51.60;46.70;;;;;;;1.40;97.56;95225.20;108852;1289;22238;-88
2023/01/18 10:28:50;;;;;;;36.80;33.40;;;;;;;1.35;96.98;95226.05;108723;1296;22275;-88
2023/01/18 10:31:28;;;;;;;27.60;25.10;;;;;;;1.38;96.95;95230.11;108960;1296;22235;-87
2023/01/18 10:33:59;;;;;;;43.90;39.90;;;;;;;1.40;97.18;95230.13;108747;1297;22205;-87
2023/01/18 10:36:32;;;;;;;36.10;33.10;;;;;;;1.43;97.11;95236.73;108860;1297;22244;-87
2023/01/18 10:39:04;;;;;;;41.30;37.70;;;;;;;1.44;97.20;95240.64;108861;1295;22948;-87
2023/01/18 10:41:37;;;;;;;35.70;32.60;;;;;;;1.42;97.32;95245.15;108856;1297;22245;-83
2023/01/18 10:44:05;;;;;;;32.60;29.80;;;;;;;1.42;97.44;95250.71;108765;1297;22226;-87
2023/01/18 10:46:33;;;;;;;30.30;27.80;;;;;;;1.44;97.88;95257.15;108856;1297;22360;-87
2023/01/18 10:49:03;;;;;;;35.60;32.30;;;;;;;1.41;97.88;95262.38;108668;1297;22137;-86
2023/01/18 10:51:36;;;;;;;35.30;32.00;;;;;;;1.41;97.94;95267.14;108688;1297;22166;-87
2023/01/18 10:54:16;;;;;;;32.30;29.50;;;;;;;1.46;97.86;95266.52;108603;1298;23103;-86
2023/01/18 10:56:48;;;;;;;35.60;32.20;;;;;;;1.49;98.42;95274.69;108650;1297;22182;-87
2023/01/18 10:59:25;;;;;;;33.50;30.20;;;;;;;1.48;98.37;95284.27;108749;1297;22805;-87
2023/01/18 11:01:56;;;;;;;32.90;30.10;;;;;;;1.43;98.45;95281.47;108847;1297;22146;-86
2023/01/18 11:04:29;;;;;;;33.10;30.10;;;;;;;1.40;98.68;95281.83;108829;1297;22207;-85
2023/01/18 11:07:00;;;;;;;25.30;23.00;;;;;;;1.37;98.53;95289.67;108771;1297;22885;-86
2023/01/18 11:09:54;;;;;;;31.40;28.70;;;;;;;1.38;99.02;95286.59;108838;1297;22795;-86
2023/01/18 11:12:36;;;;;;;28.60;26.00;;;;;;;1.36;99.13;95286.36;108872;1297;22286;-88
2023/01/18 11:15:13;;;;;;;24.70;22.50;;;;;;;1.33;98.96;95285.31;108890;1297;22318;-87
2023/01/18 11:17:57;;;;;;;29.40;26.70;;;;;;;1.33;98.80;95286.17;108867;1297;22963;-87
2023/01/18 11:20:34;;;;;;;29.10;26.40;;;;;;;1.35;98.86;95301.55;108727;1297;22205;-87
2023/01/18 11:23:35;;;;;;;23.10;20.80;;;;;;;1.39;99.01;95307.10;108852;1297;22180;-87
2023/01/18 11:26:22;;;;;;;21.30;19.40;;;;;;;1.42;99.42;95320.13;108256;1301;22268;-86
2023/01/18 11:29:00;;;;;;;33.00;30.00;;;;;;;1.38;99.39;95320.83;108157;1301;22280;-87
2023/01/18 11:31:46;;;;;;;23.60;21.40;;;;;;;1.35;99.30;95325.40;108395;1301;23093;-87
2023/01/18 11:34:27;;;;;;;19.30;17.60;;;;;;;1.34;99.33;95327.20;108039;1301;302376;-87
2023/01/18 11:36:56;;;;;;;20.60;18.80;;;;;;;1.38;99.62;95326.61;108431;1301;22319;-87
2023/01/18 11:39:35;;;;;;;21.90;20.00;;;;;;;1.30;99.57;95324.70;108406;1301;22414;-86
2023/01/18 11:42:30;;;;;;;20.80;18.90;;;;;;;1.32;99.72;95326.84;108211;1301;22301;-85
2023/01/18 11:45:43;;;;;;;21.50;19.70;;;;;;;1.37;99.78;95331.66;108487;1278;22181;-91
2023/01/18 11:48:29;;;;;;;27.30;24.80;;;;;;;1.45;99.94;95347.50;108395;1301;22255;-85
2023/01/18 11:51:19;;;;;;;25.20;23.00;;;;;;;1.45;99.91;95348.28;108425;1301;22260;-87
2023/01/18 11:54:08;;;;;;;25.40;22.80;;;;;;;1.45;99.73;95358.33;108387;1301;22263;-88
2023/01/18 11:56:46;;;;;;;25.10;22.90;;;;;;;1.46;99.61;95367.11;108397;1301;22301;-86
2023/01/18 11:59:23;;;;;;;25.90;23.40;;;;;;;1.46;99.73;95375.44;108355;1301;22266;-91
2023/01/18 12:02:15;;;;;;;27.80;25.30;;;;;;;1.42;99.45;95386.16;108544;1301;22210;-92
2023/01/18 12:05:05;;;;;;;22.70;20.60;;;;;;;1.34;99.24;95388.51;108922;1297;22172;-92
2023/01/18 12:07:40;;;;;;;23.30;21.20;;;;;;;1.31;99.63;95392.55;108592;1297;22198;-91
2023/01/18 12:10:19;;;;;;;29.10;26.40;;;;;;;1.34;99.80;95394.59;108845;1297;22222;-93
2023/01/18 12:13:21;;;;;;;28.50;26.00;;;;;;;1.34;99.89;95399.58;108797;1297;22133;-89
2023/01/18 12:16:03;;;;;;;27.20;24.60;;;;;;;1.31;99.50;95402.63;108749;1297;22938;-89
2023/01/18 12:18:50;;;;;;;25.50;23.30;;;;;;;1.33;99.84;95417.23;108893;1297;22129;-90
2023/01/18 12:21:43;;;;;;;30.80;28.10;;;;;;;1.30;99.68;95426.75;108911;1297;22260;-90
2023/01/18 12:24:48;;;;;;;33.30;30.30;;;;;;;1.33;99.98;95429.48;108925;1297;22964;-91